sensor_id;sensor_type;location;lat;lon;timestamp;P1;durP1;ratioP1;P2;durP2;ratioP2
62572;SDS011;48626;51.678;5.806;2023-10-19T00:01:07;14.30;;;9.75;;
62572;SDS011;48626;51.678;5.806;2023-10-19T00:03:36;16.90;;;9.88;;
62572;SDS011;48626;51.678;5.806;2023-10-19T00:06:02;14.55;;;10.15;;
62572;SDS011;48626;51.678;5.806;2023-10-19T00:08:30;12.90;;;9.75;;
62572;SDS011;48626;51.678;5.806;2023-10-19T00:11:06;29.48;;;10.55;;
62572;SDS011;48626;51.678;5.806;2023-10-19T00:13:32;14.90;;;10.07;;
62572;SDS011;48626;51.678;5.806;2023-10-19T00:16:00;13.80;;;9.73;;
62572;SDS011;48626;51.678;5.806;2023-10-19T00:18:32;14.60;;;9.65;;
62572;SDS011;48626;51.678;5.806;2023-10-19T00:20:59;13.85;;;10.13;;
62572;SDS011;48626;51.678;5.806;2023-10-19T00:23:36;17.30;;;10.65;;
62572;SDS011;48626;51.678;5.806;2023-10-19T00:26:02;15.13;;;9.98;;
62572;SDS011;48626;51.678;5.806;2023-10-19T00:28:35;13.63;;;10.13;;
62572;SDS011;48626;51.678;5.806;2023-10-19T00:31:03;17.23;;;10.73;;
62572;SDS011;48626;51.678;5.806;2023-10-19T00:33:33;15.32;;;10.45;;
62572;SDS011;48626;51.678;5.806;2023-10-19T00:36:04;15.82;;;10.18;;
62572;SDS011;48626;51.678;5.806;2023-10-19T00:38:36;18.88;;;10.23;;
62572;SDS011;48626;51.678;5.806;2023-10-19T00:41:03;15.07;;;9.93;;
62572;SDS011;48626;51.678;5.806;2023-10-19T00:43:37;15.88;;;10.43;;
62572;SDS011;48626;51.678;5.806;2023-10-19T00:46:10;15.65;;;10.15;;
62572;SDS011;48626;51.678;5.806;2023-10-19T00:48:47;17.40;;;10.00;;
62572;SDS011;48626;51.678;5.806;2023-10-19T00:51:22;16.95;;;10.00;;
62572;SDS011;48626;51.678;5.806;2023-10-19T00:57:16;16.20;;;9.73;;
62572;SDS011;48626;51.678;5.806;2023-10-19T00:59:45;12.27;;;8.95;;
62572;SDS011;48626;51.678;5.806;2023-10-19T01:02:23;16.30;;;10.65;;
62572;SDS011;48626;51.678;5.806;2023-10-19T01:04:49;17.58;;;10.15;;
62572;SDS011;48626;51.678;5.806;2023-10-19T01:07:20;15.48;;;9.93;;
62572;SDS011;48626;51.678;5.806;2023-10-19T01:09:54;16.17;;;9.90;;
62572;SDS011;48626;51.678;5.806;2023-10-19T01:12:25;17.90;;;9.93;;
62572;SDS011;48626;51.678;5.806;2023-10-19T01:15:03;12.40;;;9.40;;
62572;SDS011;48626;51.678;5.806;2023-10-19T01:17:36;14.48;;;9.38;;
62572;SDS011;48626;51.678;5.806;2023-10-19T01:20:09;12.95;;;8.82;;
62572;SDS011;48626;51.678;5.806;2023-10-19T01:22:48;13.52;;;8.88;;
62572;SDS011;48626;51.678;5.806;2023-10-19T01:28:36;13.98;;;9.10;;
62572;SDS011;48626;51.678;5.806;2023-10-19T01:31:05;16.02;;;9.25;;
62572;SDS011;48626;51.678;5.806;2023-10-19T01:33:32;14.95;;;9.68;;
62572;SDS011;48626;51.678;5.806;2023-10-19T01:35:59;12.57;;;9.05;;
62572;SDS011;48626;51.678;5.806;2023-10-19T01:38:39;13.85;;;8.82;;
62572;SDS011;48626;51.678;5.806;2023-10-19T01:41:07;14.65;;;8.75;;
62572;SDS011;48626;51.678;5.806;2023-10-19T01:43:54;15.07;;;8.60;;
62572;SDS011;48626;51.678;5.806;2023-10-19T01:46:21;13.30;;;9.02;;
62572;SDS011;48626;51.678;5.806;2023-10-19T01:48:49;13.32;;;8.70;;
62572;SDS011;48626;51.678;5.806;2023-10-19T01:51:20;13.52;;;8.35;;
62572;SDS011;48626;51.678;5.806;2023-10-19T01:53:51;11.52;;;8.27;;
62572;SDS011;48626;51.678;5.806;2023-10-19T01:56:18;16.00;;;8.95;;
62572;SDS011;48626;51.678;5.806;2023-10-19T01:58:45;13.93;;;8.98;;
62572;SDS011;48626;51.678;5.806;2023-10-19T02:01:12;14.90;;;8.90;;
62572;SDS011;48626;51.678;5.806;2023-10-19T02:03:39;11.85;;;8.73;;
62572;SDS011;48626;51.678;5.806;2023-10-19T02:06:12;15.60;;;8.23;;
62572;SDS011;48626;51.678;5.806;2023-10-19T02:08:41;14.57;;;8.60;;
62572;SDS011;48626;51.678;5.806;2023-10-19T02:11:07;14.00;;;8.88;;
62572;SDS011;48626;51.678;5.806;2023-10-19T02:13:41;12.88;;;8.30;;
62572;SDS011;48626;51.678;5.806;2023-10-19T02:16:10;16.00;;;7.80;;
62572;SDS011;48626;51.678;5.806;2023-10-19T02:18:35;13.30;;;8.80;;
62572;SDS011;48626;51.678;5.806;2023-10-19T02:21:02;15.07;;;8.38;;
62572;SDS011;48626;51.678;5.806;2023-10-19T02:23:31;13.18;;;8.27;;
62572;SDS011;48626;51.678;5.806;2023-10-19T02:26:00;13.70;;;7.65;;
62572;SDS011;48626;51.678;5.806;2023-10-19T02:28:28;12.88;;;7.72;;
62572;SDS011;48626;51.678;5.806;2023-10-19T02:30:57;11.45;;;7.85;;
62572;SDS011;48626;51.678;5.806;2023-10-19T02:33:24;12.73;;;7.90;;
62572;SDS011;48626;51.678;5.806;2023-10-19T02:35:51;14.02;;;8.43;;
62572;SDS011;48626;51.678;5.806;2023-10-19T02:38:17;10.20;;;7.82;;
62572;SDS011;48626;51.678;5.806;2023-10-19T02:40:42;13.93;;;7.65;;
62572;SDS011;48626;51.678;5.806;2023-10-19T02:43:08;12.20;;;7.38;;
62572;SDS011;48626;51.678;5.806;2023-10-19T02:45:34;15.88;;;7.47;;
62572;SDS011;48626;51.678;5.806;2023-10-19T02:47:59;12.55;;;7.00;;
62572;SDS011;48626;51.678;5.806;2023-10-19T02:50:25;11.80;;;6.78;;
62572;SDS011;48626;51.678;5.806;2023-10-19T02:52:51;9.50;;;6.20;;
62572;SDS011;48626;51.678;5.806;2023-10-19T02:55:18;14.98;;;6.18;;
62572;SDS011;48626;51.678;5.806;2023-10-19T02:57:48;9.68;;;6.18;;
62572;SDS011;48626;51.678;5.806;2023-10-19T03:00:15;9.15;;;6.05;;
62572;SDS011;48626;51.678;5.806;2023-10-19T03:02:44;8.18;;;6.15;;
62572;SDS011;48626;51.678;5.806;2023-10-19T03:05:10;12.25;;;6.22;;
62572;SDS011;48626;51.678;5.806;2023-10-19T03:07:40;9.95;;;6.32;;
62572;SDS011;48626;51.678;5.806;2023-10-19T03:10:08;10.20;;;6.25;;
62572;SDS011;48626;51.678;5.806;2023-10-19T03:13:00;13.82;;;6.40;;
62572;SDS011;48626;51.678;5.806;2023-10-19T03:15:26;11.02;;;6.03;;
62572;SDS011;48626;51.678;5.806;2023-10-19T03:17:55;9.27;;;6.40;;
62572;SDS011;48626;51.678;5.806;2023-10-19T03:20:21;9.95;;;6.30;;
62572;SDS011;48626;51.678;5.806;2023-10-19T03:22:50;11.85;;;6.30;;
62572;SDS011;48626;51.678;5.806;2023-10-19T03:25:16;10.05;;;6.45;;
62572;SDS011;48626;51.678;5.806;2023-10-19T03:28:00;9.60;;;6.25;;
62572;SDS011;48626;51.678;5.806;2023-10-19T03:30:36;12.82;;;6.55;;
62572;SDS011;48626;51.678;5.806;2023-10-19T03:33:05;10.38;;;6.40;;
62572;SDS011;48626;51.678;5.806;2023-10-19T03:35:35;9.20;;;6.22;;
62572;SDS011;48626;51.678;5.806;2023-10-19T03:38:02;12.70;;;6.63;;
62572;SDS011;48626;51.678;5.806;2023-10-19T03:40:33;12.00;;;6.65;;
62572;SDS011;48626;51.678;5.806;2023-10-19T03:43:03;13.85;;;6.35;;
62572;SDS011;48626;51.678;5.806;2023-10-19T03:45:42;10.35;;;5.93;;
62572;SDS011;48626;51.678;5.806;2023-10-19T03:48:13;10.38;;;6.28;;
62572;SDS011;48626;51.678;5.806;2023-10-19T03:50:41;10.82;;;5.90;;
62572;SDS011;48626;51.678;5.806;2023-10-19T03:53:07;11.35;;;6.20;;
62572;SDS011;48626;51.678;5.806;2023-10-19T03:55:37;9.73;;;6.50;;
62572;SDS011;48626;51.678;5.806;2023-10-19T03:58:03;12.15;;;6.70;;
62572;SDS011;48626;51.678;5.806;2023-10-19T04:00:29;9.57;;;6.05;;
62572;SDS011;48626;51.678;5.806;2023-10-19T04:02:58;12.30;;;6.53;;
62572;SDS011;48626;51.678;5.806;2023-10-19T04:05:24;10.55;;;5.93;;
62572;SDS011;48626;51.678;5.806;2023-10-19T04:07:51;9.27;;;6.22;;
62572;SDS011;48626;51.678;5.806;2023-10-19T04:10:20;11.73;;;6.38;;
62572;SDS011;48626;51.678;5.806;2023-10-19T04:12:55;9.25;;;5.60;;
62572;SDS011;48626;51.678;5.806;2023-10-19T04:15:22;13.50;;;6.28;;
62572;SDS011;48626;51.678;5.806;2023-10-19T04:17:48;9.43;;;5.43;;
62572;SDS011;48626;51.678;5.806;2023-10-19T04:20:14;11.30;;;5.72;;
62572;SDS011;48626;51.678;5.806;2023-10-19T04:22:47;10.70;;;6.05;;
62572;SDS011;48626;51.678;5.806;2023-10-19T04:25:14;11.13;;;5.38;;
62572;SDS011;48626;51.678;5.806;2023-10-19T04:27:41;9.00;;;5.63;;
62572;SDS011;48626;51.678;5.806;2023-10-19T04:30:11;11.05;;;5.45;;
62572;SDS011;48626;51.678;5.806;2023-10-19T04:32:48;8.82;;;5.03;;
62572;SDS011;48626;51.678;5.806;2023-10-19T04:35:15;6.78;;;4.78;;
62572;SDS011;48626;51.678;5.806;2023-10-19T04:37:54;10.30;;;4.82;;
62572;SDS011;48626;51.678;5.806;2023-10-19T04:40:20;21.17;;;4.88;;
62572;SDS011;48626;51.678;5.806;2023-10-19T04:42:46;9.57;;;4.53;;
62572;SDS011;48626;51.678;5.806;2023-10-19T04:45:13;8.10;;;4.32;;
62572;SDS011;48626;51.678;5.806;2023-10-19T04:47:39;7.15;;;4.65;;
62572;SDS011;48626;51.678;5.806;2023-10-19T04:50:05;9.07;;;4.22;;
62572;SDS011;48626;51.678;5.806;2023-10-19T04:52:32;6.28;;;4.00;;
62572;SDS011;48626;51.678;5.806;2023-10-19T04:54:58;12.15;;;4.32;;
62572;SDS011;48626;51.678;5.806;2023-10-19T04:57:24;9.60;;;4.25;;
62572;SDS011;48626;51.678;5.806;2023-10-19T04:59:53;6.30;;;3.85;;
62572;SDS011;48626;51.678;5.806;2023-10-19T05:02:20;8.60;;;3.88;;
62572;SDS011;48626;51.678;5.806;2023-10-19T05:04:46;9.25;;;4.13;;
62572;SDS011;48626;51.678;5.806;2023-10-19T05:07:14;9.48;;;4.45;;
62572;SDS011;48626;51.678;5.806;2023-10-19T05:09:45;8.00;;;4.40;;
62572;SDS011;48626;51.678;5.806;2023-10-19T05:12:11;8.18;;;4.13;;
62572;SDS011;48626;51.678;5.806;2023-10-19T05:14:39;9.43;;;3.70;;
62572;SDS011;48626;51.678;5.806;2023-10-19T05:17:06;6.75;;;3.45;;
62572;SDS011;48626;51.678;5.806;2023-10-19T05:19:35;6.07;;;3.85;;
62572;SDS011;48626;51.678;5.806;2023-10-19T05:22:02;11.70;;;4.07;;
62572;SDS011;48626;51.678;5.806;2023-10-19T05:24:33;6.88;;;3.35;;
62572;SDS011;48626;51.678;5.806;2023-10-19T05:26:58;11.38;;;4.00;;
62572;SDS011;48626;51.678;5.806;2023-10-19T05:29:24;7.97;;;3.45;;
62572;SDS011;48626;51.678;5.806;2023-10-19T05:31:50;11.20;;;3.58;;
62572;SDS011;48626;51.678;5.806;2023-10-19T05:34:21;11.93;;;3.80;;
62572;SDS011;48626;51.678;5.806;2023-10-19T05:36:46;10.57;;;3.45;;
62572;SDS011;48626;51.678;5.806;2023-10-19T05:39:16;12.93;;;3.13;;
62572;SDS011;48626;51.678;5.806;2023-10-19T05:41:42;11.77;;;3.42;;
62572;SDS011;48626;51.678;5.806;2023-10-19T05:44:11;6.32;;;2.97;;
62572;SDS011;48626;51.678;5.806;2023-10-19T05:46:36;13.98;;;3.83;;
62572;SDS011;48626;51.678;5.806;2023-10-19T05:49:03;10.43;;;3.08;;
62572;SDS011;48626;51.678;5.806;2023-10-19T05:51:31;9.70;;;3.17;;
62572;SDS011;48626;51.678;5.806;2023-10-19T05:53:59;10.95;;;2.70;;
62572;SDS011;48626;51.678;5.806;2023-10-19T05:56:34;5.57;;;2.42;;
62572;SDS011;48626;51.678;5.806;2023-10-19T05:59:03;10.65;;;2.90;;
62572;SDS011;48626;51.678;5.806;2023-10-19T06:01:33;8.48;;;2.80;;
62572;SDS011;48626;51.678;5.806;2023-10-19T06:03:59;11.07;;;2.50;;
62572;SDS011;48626;51.678;5.806;2023-10-19T06:06:27;6.65;;;2.60;;
62572;SDS011;48626;51.678;5.806;2023-10-19T06:08:59;7.43;;;2.67;;
62572;SDS011;48626;51.678;5.806;2023-10-19T06:11:28;10.97;;;2.60;;
62572;SDS011;48626;51.678;5.806;2023-10-19T06:14:02;20.20;;;3.13;;
62572;SDS011;48626;51.678;5.806;2023-10-19T06:16:31;9.25;;;2.72;;
62572;SDS011;48626;51.678;5.806;2023-10-19T06:18:58;10.07;;;2.65;;
62572;SDS011;48626;51.678;5.806;2023-10-19T06:21:23;14.57;;;2.90;;
62572;SDS011;48626;51.678;5.806;2023-10-19T06:23:52;8.68;;;2.58;;
62572;SDS011;48626;51.678;5.806;2023-10-19T06:26:19;16.13;;;2.88;;
62572;SDS011;48626;51.678;5.806;2023-10-19T06:28:48;9.57;;;2.67;;
62572;SDS011;48626;51.678;5.806;2023-10-19T06:31:15;12.57;;;2.70;;
62572;SDS011;48626;51.678;5.806;2023-10-19T06:33:42;10.32;;;2.65;;
62572;SDS011;48626;51.678;5.806;2023-10-19T06:36:07;15.55;;;2.92;;
62572;SDS011;48626;51.678;5.806;2023-10-19T06:38:40;14.82;;;3.10;;
62572;SDS011;48626;51.678;5.806;2023-10-19T06:41:14;12.40;;;2.90;;
62572;SDS011;48626;51.678;5.806;2023-10-19T06:43:44;10.35;;;2.83;;
62572;SDS011;48626;51.678;5.806;2023-10-19T06:46:13;12.00;;;2.97;;
62572;SDS011;48626;51.678;5.806;2023-10-19T06:48:47;9.77;;;2.70;;
62572;SDS011;48626;51.678;5.806;2023-10-19T06:51:15;17.25;;;2.85;;
62572;SDS011;48626;51.678;5.806;2023-10-19T06:53:41;12.55;;;2.85;;
62572;SDS011;48626;51.678;5.806;2023-10-19T06:56:19;13.90;;;3.13;;
62572;SDS011;48626;51.678;5.806;2023-10-19T06:58:47;8.43;;;2.85;;
62572;SDS011;48626;51.678;5.806;2023-10-19T07:01:16;10.60;;;3.00;;
62572;SDS011;48626;51.678;5.806;2023-10-19T07:03:51;7.80;;;2.55;;
62572;SDS011;48626;51.678;5.806;2023-10-19T07:06:18;12.63;;;2.90;;
62572;SDS011;48626;51.678;5.806;2023-10-19T07:08:44;10.45;;;3.10;;
62572;SDS011;48626;51.678;5.806;2023-10-19T07:11:16;7.60;;;2.80;;
62572;SDS011;48626;51.678;5.806;2023-10-19T07:13:44;6.35;;;2.85;;
62572;SDS011;48626;51.678;5.806;2023-10-19T07:16:19;15.23;;;3.63;;
62572;SDS011;48626;51.678;5.806;2023-10-19T07:18:48;17.88;;;3.05;;
62572;SDS011;48626;51.678;5.806;2023-10-19T07:21:16;13.48;;;2.80;;
62572;SDS011;48626;51.678;5.806;2023-10-19T07:23:45;15.25;;;3.13;;
62572;SDS011;48626;51.678;5.806;2023-10-19T07:26:14;12.50;;;3.00;;
62572;SDS011;48626;51.678;5.806;2023-10-19T07:28:40;12.98;;;3.28;;
62572;SDS011;48626;51.678;5.806;2023-10-19T07:31:07;13.65;;;3.20;;
62572;SDS011;48626;51.678;5.806;2023-10-19T07:33:38;12.07;;;2.90;;
62572;SDS011;48626;51.678;5.806;2023-10-19T07:36:11;13.10;;;3.00;;
62572;SDS011;48626;51.678;5.806;2023-10-19T07:38:39;11.52;;;3.25;;
62572;SDS011;48626;51.678;5.806;2023-10-19T07:41:06;15.15;;;3.10;;
62572;SDS011;48626;51.678;5.806;2023-10-19T07:43:31;8.80;;;2.90;;
62572;SDS011;48626;51.678;5.806;2023-10-19T07:45:58;13.43;;;3.30;;
62572;SDS011;48626;51.678;5.806;2023-10-19T07:48:23;12.43;;;3.30;;
62572;SDS011;48626;51.678;5.806;2023-10-19T07:50:50;16.30;;;3.20;;
62572;SDS011;48626;51.678;5.806;2023-10-19T07:53:15;12.73;;;3.53;;
62572;SDS011;48626;51.678;5.806;2023-10-19T07:55:50;12.02;;;3.42;;
62572;SDS011;48626;51.678;5.806;2023-10-19T07:58:17;10.30;;;3.22;;
62572;SDS011;48626;51.678;5.806;2023-10-19T08:00:45;17.52;;;3.30;;
62572;SDS011;48626;51.678;5.806;2023-10-19T08:03:12;19.23;;;3.90;;
62572;SDS011;48626;51.678;5.806;2023-10-19T08:05:40;12.55;;;3.72;;
62572;SDS011;48626;51.678;5.806;2023-10-19T08:08:06;9.43;;;3.17;;
62572;SDS011;48626;51.678;5.806;2023-10-19T08:10:33;14.40;;;3.80;;
62572;SDS011;48626;51.678;5.806;2023-10-19T08:12:59;22.63;;;4.68;;
62572;SDS011;48626;51.678;5.806;2023-10-19T08:15:26;10.90;;;3.40;;
62572;SDS011;48626;51.678;5.806;2023-10-19T08:17:54;12.52;;;3.40;;
62572;SDS011;48626;51.678;5.806;2023-10-19T08:20:20;14.60;;;3.05;;
62572;SDS011;48626;51.678;5.806;2023-10-19T08:22:55;16.48;;;3.72;;
62572;SDS011;48626;51.678;5.806;2023-10-19T08:25:22;13.57;;;3.42;;
62572;SDS011;48626;51.678;5.806;2023-10-19T08:27:48;13.52;;;3.20;;
62572;SDS011;48626;51.678;5.806;2023-10-19T08:30:21;13.48;;;3.63;;
62572;SDS011;48626;51.678;5.806;2023-10-19T08:32:50;9.85;;;3.60;;
62572;SDS011;48626;51.678;5.806;2023-10-19T08:35:16;16.08;;;3.47;;
62572;SDS011;48626;51.678;5.806;2023-10-19T08:37:45;15.38;;;4.32;;
62572;SDS011;48626;51.678;5.806;2023-10-19T08:40:12;14.23;;;4.90;;
62572;SDS011;48626;51.678;5.806;2023-10-19T08:42:40;13.98;;;4.70;;
62572;SDS011;48626;51.678;5.806;2023-10-19T08:45:09;14.23;;;4.72;;
62572;SDS011;48626;51.678;5.806;2023-10-19T08:47:40;10.68;;;4.60;;
62572;SDS011;48626;51.678;5.806;2023-10-19T08:50:18;18.50;;;4.25;;
62572;SDS011;48626;51.678;5.806;2023-10-19T08:52:48;19.50;;;4.57;;
62572;SDS011;48626;51.678;5.806;2023-10-19T08:55:19;18.13;;;4.63;;
62572;SDS011;48626;51.678;5.806;2023-10-19T08:57:45;16.95;;;4.80;;
62572;SDS011;48626;51.678;5.806;2023-10-19T09:00:18;15.95;;;5.35;;
62572;SDS011;48626;51.678;5.806;2023-10-19T09:02:44;15.32;;;5.70;;
62572;SDS011;48626;51.678;5.806;2023-10-19T09:05:13;15.43;;;5.75;;
62572;SDS011;48626;51.678;5.806;2023-10-19T09:07:47;13.27;;;5.75;;
62572;SDS011;48626;51.678;5.806;2023-10-19T09:10:20;17.95;;;5.78;;
62572;SDS011;48626;51.678;5.806;2023-10-19T09:13:08;23.65;;;6.10;;
62572;SDS011;48626;51.678;5.806;2023-10-19T09:15:34;19.58;;;6.20;;
62572;SDS011;48626;51.678;5.806;2023-10-19T09:18:20;18.30;;;7.03;;
62572;SDS011;48626;51.678;5.806;2023-10-19T09:20:54;21.52;;;6.90;;
62572;SDS011;48626;51.678;5.806;2023-10-19T09:23:46;20.85;;;6.47;;
62572;SDS011;48626;51.678;5.806;2023-10-19T09:26:15;17.42;;;6.25;;
62572;SDS011;48626;51.678;5.806;2023-10-19T09:28:41;15.73;;;6.32;;
62572;SDS011;48626;51.678;5.806;2023-10-19T09:31:07;16.60;;;5.80;;
62572;SDS011;48626;51.678;5.806;2023-10-19T09:33:37;18.20;;;5.88;;
62572;SDS011;48626;51.678;5.806;2023-10-19T09:36:09;17.52;;;5.13;;
62572;SDS011;48626;51.678;5.806;2023-10-19T09:38:46;16.60;;;4.80;;
62572;SDS011;48626;51.678;5.806;2023-10-19T09:41:22;19.98;;;4.97;;
62572;SDS011;48626;51.678;5.806;2023-10-19T09:43:53;20.38;;;4.68;;
62572;SDS011;48626;51.678;5.806;2023-10-19T09:46:31;20.90;;;6.13;;
62572;SDS011;48626;51.678;5.806;2023-10-19T09:48:57;17.73;;;4.47;;
62572;SDS011;48626;51.678;5.806;2023-10-19T09:51:23;17.90;;;4.53;;
62572;SDS011;48626;51.678;5.806;2023-10-19T09:54:12;18.73;;;4.55;;
62572;SDS011;48626;51.678;5.806;2023-10-19T09:56:55;13.27;;;4.18;;
62572;SDS011;48626;51.678;5.806;2023-10-19T09:59:40;17.70;;;4.50;;
62572;SDS011;48626;51.678;5.806;2023-10-19T10:02:10;18.35;;;4.25;;
62572;SDS011;48626;51.678;5.806;2023-10-19T10:04:40;16.25;;;3.90;;
62572;SDS011;48626;51.678;5.806;2023-10-19T10:07:10;17.70;;;3.60;;
62572;SDS011;48626;51.678;5.806;2023-10-19T10:09:39;15.90;;;3.95;;
62572;SDS011;48626;51.678;5.806;2023-10-19T10:12:22;17.15;;;3.70;;
62572;SDS011;48626;51.678;5.806;2023-10-19T10:15:03;17.17;;;3.50;;
62572;SDS011;48626;51.678;5.806;2023-10-19T10:17:35;21.52;;;4.30;;
62572;SDS011;48626;51.678;5.806;2023-10-19T10:22:43;18.50;;;3.75;;
62572;SDS011;48626;51.678;5.806;2023-10-19T10:25:25;12.88;;;3.20;;
62572;SDS011;48626;51.678;5.806;2023-10-19T10:27:52;16.77;;;3.50;;
62572;SDS011;48626;51.678;5.806;2023-10-19T10:30:19;13.70;;;3.28;;
62572;SDS011;48626;51.678;5.806;2023-10-19T10:32:46;12.40;;;3.08;;
62572;SDS011;48626;51.678;5.806;2023-10-19T10:38:05;19.48;;;3.35;;
62572;SDS011;48626;51.678;5.806;2023-10-19T10:40:52;19.85;;;3.70;;
62572;SDS011;48626;51.678;5.806;2023-10-19T10:43:18;11.65;;;3.30;;
62572;SDS011;48626;51.678;5.806;2023-10-19T10:45:44;17.02;;;4.72;;
62572;SDS011;48626;51.678;5.806;2023-10-19T10:50:39;22.83;;;5.05;;
62572;SDS011;48626;51.678;5.806;2023-10-19T10:53:06;19.08;;;4.25;;
62572;SDS011;48626;51.678;5.806;2023-10-19T10:55:33;19.58;;;3.75;;
62572;SDS011;48626;51.678;5.806;2023-10-19T10:57:58;14.48;;;3.88;;
62572;SDS011;48626;51.678;5.806;2023-10-19T11:00:24;23.00;;;4.28;;
62572;SDS011;48626;51.678;5.806;2023-10-19T11:03:01;19.58;;;3.78;;
62572;SDS011;48626;51.678;5.806;2023-10-19T11:05:32;15.05;;;3.20;;
62572;SDS011;48626;51.678;5.806;2023-10-19T11:08:13;14.73;;;3.17;;
62572;SDS011;48626;51.678;5.806;2023-10-19T11:10:41;14.70;;;3.10;;
62572;SDS011;48626;51.678;5.806;2023-10-19T11:13:10;15.15;;;3.53;;
62572;SDS011;48626;51.678;5.806;2023-10-19T11:15:37;15.50;;;3.40;;
62572;SDS011;48626;51.678;5.806;2023-10-19T11:18:07;18.85;;;3.25;;
62572;SDS011;48626;51.678;5.806;2023-10-19T11:20:33;13.68;;;3.60;;
62572;SDS011;48626;51.678;5.806;2023-10-19T11:22:59;13.25;;;3.72;;
62572;SDS011;48626;51.678;5.806;2023-10-19T11:25:28;17.77;;;3.63;;
62572;SDS011;48626;51.678;5.806;2023-10-19T11:27:57;18.83;;;3.90;;
62572;SDS011;48626;51.678;5.806;2023-10-19T11:30:31;16.48;;;3.92;;
62572;SDS011;48626;51.678;5.806;2023-10-19T11:32:57;20.23;;;3.70;;
62572;SDS011;48626;51.678;5.806;2023-10-19T11:35:27;17.77;;;3.53;;
62572;SDS011;48626;51.678;5.806;2023-10-19T11:37:56;19.40;;;4.10;;
62572;SDS011;48626;51.678;5.806;2023-10-19T11:40:23;15.40;;;3.40;;
62572;SDS011;48626;51.678;5.806;2023-10-19T11:42:51;15.15;;;3.55;;
62572;SDS011;48626;51.678;5.806;2023-10-19T11:45:17;18.63;;;3.60;;
62572;SDS011;48626;51.678;5.806;2023-10-19T11:47:44;10.85;;;3.30;;
62572;SDS011;48626;51.678;5.806;2023-10-19T11:50:10;12.52;;;3.40;;
62572;SDS011;48626;51.678;5.806;2023-10-19T11:52:43;19.02;;;3.85;;
62572;SDS011;48626;51.678;5.806;2023-10-19T11:55:11;13.70;;;3.67;;
62572;SDS011;48626;51.678;5.806;2023-10-19T11:57:44;12.65;;;3.20;;
62572;SDS011;48626;51.678;5.806;2023-10-19T12:00:10;20.23;;;3.67;;
62572;SDS011;48626;51.678;5.806;2023-10-19T12:02:46;22.27;;;4.03;;
62572;SDS011;48626;51.678;5.806;2023-10-19T12:05:12;16.95;;;3.67;;
62572;SDS011;48626;51.678;5.806;2023-10-19T12:07:38;16.63;;;3.40;;
62572;SDS011;48626;51.678;5.806;2023-10-19T12:10:08;16.17;;;3.90;;
62572;SDS011;48626;51.678;5.806;2023-10-19T12:12:36;19.88;;;3.13;;
62572;SDS011;48626;51.678;5.806;2023-10-19T12:15:02;15.32;;;3.50;;
62572;SDS011;48626;51.678;5.806;2023-10-19T12:17:30;17.83;;;3.50;;
62572;SDS011;48626;51.678;5.806;2023-10-19T12:19:59;19.00;;;3.58;;
62572;SDS011;48626;51.678;5.806;2023-10-19T12:22:24;13.27;;;3.50;;
62572;SDS011;48626;51.678;5.806;2023-10-19T12:24:56;17.60;;;3.95;;
62572;SDS011;48626;51.678;5.806;2023-10-19T12:27:23;21.15;;;3.72;;
62572;SDS011;48626;51.678;5.806;2023-10-19T12:29:49;20.33;;;3.70;;
62572;SDS011;48626;51.678;5.806;2023-10-19T12:32:17;15.75;;;3.97;;
62572;SDS011;48626;51.678;5.806;2023-10-19T12:34:43;14.60;;;3.65;;
62572;SDS011;48626;51.678;5.806;2023-10-19T12:37:09;15.82;;;3.92;;
62572;SDS011;48626;51.678;5.806;2023-10-19T12:39:37;16.73;;;4.63;;
62572;SDS011;48626;51.678;5.806;2023-10-19T12:42:14;16.67;;;3.97;;
62572;SDS011;48626;51.678;5.806;2023-10-19T12:44:40;13.30;;;3.42;;
62572;SDS011;48626;51.678;5.806;2023-10-19T12:47:06;16.05;;;3.65;;
62572;SDS011;48626;51.678;5.806;2023-10-19T12:49:38;19.08;;;3.70;;
62572;SDS011;48626;51.678;5.806;2023-10-19T12:52:07;14.30;;;3.45;;
62572;SDS011;48626;51.678;5.806;2023-10-19T12:54:37;11.43;;;3.40;;
62572;SDS011;48626;51.678;5.806;2023-10-19T12:57:06;17.73;;;3.77;;
62572;SDS011;48626;51.678;5.806;2023-10-19T12:59:36;20.67;;;3.67;;
62572;SDS011;48626;51.678;5.806;2023-10-19T13:02:05;12.55;;;3.40;;
62572;SDS011;48626;51.678;5.806;2023-10-19T13:04:33;20.48;;;3.88;;
62572;SDS011;48626;51.678;5.806;2023-10-19T13:06:59;13.45;;;4.03;;
62572;SDS011;48626;51.678;5.806;2023-10-19T13:09:25;17.77;;;3.88;;
62572;SDS011;48626;51.678;5.806;2023-10-19T13:11:58;14.77;;;4.53;;
62572;SDS011;48626;51.678;5.806;2023-10-19T13:14:24;17.55;;;3.88;;
62572;SDS011;48626;51.678;5.806;2023-10-19T13:16:50;17.23;;;4.00;;
62572;SDS011;48626;51.678;5.806;2023-10-19T13:19:17;16.17;;;3.85;;
62572;SDS011;48626;51.678;5.806;2023-10-19T13:21:46;21.38;;;4.70;;
62572;SDS011;48626;51.678;5.806;2023-10-19T13:24:23;13.10;;;3.78;;
62572;SDS011;48626;51.678;5.806;2023-10-19T13:26:51;19.88;;;3.83;;
62572;SDS011;48626;51.678;5.806;2023-10-19T13:29:16;14.52;;;3.72;;
62572;SDS011;48626;51.678;5.806;2023-10-19T13:31:42;20.45;;;4.03;;
62572;SDS011;48626;51.678;5.806;2023-10-19T13:34:14;13.15;;;3.58;;
62572;SDS011;48626;51.678;5.806;2023-10-19T13:36:40;13.98;;;3.42;;
62572;SDS011;48626;51.678;5.806;2023-10-19T13:39:06;19.85;;;3.50;;
62572;SDS011;48626;51.678;5.806;2023-10-19T13:41:37;15.07;;;3.80;;
62572;SDS011;48626;51.678;5.806;2023-10-19T13:44:03;16.98;;;3.80;;
62572;SDS011;48626;51.678;5.806;2023-10-19T13:46:32;13.63;;;4.10;;
62572;SDS011;48626;51.678;5.806;2023-10-19T13:48:58;13.93;;;3.33;;
62572;SDS011;48626;51.678;5.806;2023-10-19T13:51:25;16.95;;;3.70;;
62572;SDS011;48626;51.678;5.806;2023-10-19T13:53:51;12.32;;;3.50;;
62572;SDS011;48626;51.678;5.806;2023-10-19T13:56:17;14.55;;;3.47;;
62572;SDS011;48626;51.678;5.806;2023-10-19T13:58:42;11.25;;;3.20;;
62572;SDS011;48626;51.678;5.806;2023-10-19T14:01:08;15.63;;;3.78;;
62572;SDS011;48626;51.678;5.806;2023-10-19T14:03:35;14.02;;;3.38;;
62572;SDS011;48626;51.678;5.806;2023-10-19T14:06:02;13.35;;;3.60;;
62572;SDS011;48626;51.678;5.806;2023-10-19T14:08:28;17.55;;;4.22;;
62572;SDS011;48626;51.678;5.806;2023-10-19T14:11:00;15.05;;;4.72;;
62572;SDS011;48626;51.678;5.806;2023-10-19T14:13:29;19.13;;;4.20;;
62572;SDS011;48626;51.678;5.806;2023-10-19T14:15:57;9.15;;;3.95;;
62572;SDS011;48626;51.678;5.806;2023-10-19T14:18:23;19.75;;;4.30;;
62572;SDS011;48626;51.678;5.806;2023-10-19T14:20:54;18.58;;;4.18;;
62572;SDS011;48626;51.678;5.806;2023-10-19T14:23:19;12.15;;;4.50;;
62572;SDS011;48626;51.678;5.806;2023-10-19T14:25:48;17.40;;;4.47;;
62572;SDS011;48626;51.678;5.806;2023-10-19T14:28:15;15.57;;;5.28;;
62572;SDS011;48626;51.678;5.806;2023-10-19T14:30:40;18.67;;;4.88;;
62572;SDS011;48626;51.678;5.806;2023-10-19T14:33:06;18.08;;;5.00;;
62572;SDS011;48626;51.678;5.806;2023-10-19T14:35:36;15.82;;;5.10;;
62572;SDS011;48626;51.678;5.806;2023-10-19T14:38:04;16.50;;;5.93;;
62572;SDS011;48626;51.678;5.806;2023-10-19T14:40:31;20.20;;;5.85;;
62572;SDS011;48626;51.678;5.806;2023-10-19T14:43:00;17.30;;;5.43;;
62572;SDS011;48626;51.678;5.806;2023-10-19T14:45:27;21.45;;;5.88;;
62572;SDS011;48626;51.678;5.806;2023-10-19T14:48:00;17.40;;;5.90;;
62572;SDS011;48626;51.678;5.806;2023-10-19T14:50:29;15.38;;;5.38;;
62572;SDS011;48626;51.678;5.806;2023-10-19T14:53:00;20.58;;;5.40;;
62572;SDS011;48626;51.678;5.806;2023-10-19T14:55:28;12.80;;;5.22;;
62572;SDS011;48626;51.678;5.806;2023-10-19T14:58:00;18.38;;;6.18;;
62572;SDS011;48626;51.678;5.806;2023-10-19T15:00:27;16.05;;;5.70;;
62572;SDS011;48626;51.678;5.806;2023-10-19T15:03:09;13.15;;;5.95;;